Terminal Aerodrome Forecast
Issued by NWS Goodland, KS

Home | Current Version | Previous Version | Text Only | Print | Product List | Glossary On
Versions: 1 2 3 4 5 6 7 8 9 10 11 12 13 14 15 16 17 18 19
000
FTUS43 KGLD 252320
TAFGLD
TAF
KGLD 252320Z 2600/2624 12005KT P6SM FEW050 SCT130 SCT250
     FM260800 VRB05KT P6SM SKC
     FM261800 11010KT P6SM FEW130 SCT220
     FM262200 14012G17KT P6SM VCTS SCT080CB SCT150 BKN250=

USA.gov is the U.S. government's official web portal to all federal, state and local government web resources and services.